»·PEaware :: N9550G KBFL-KMHV

N9550G :: KBFL-KMHV

FLIGHT INFORMATION

Flight Status: Arrived
Operator: Privately registered:
United States
More flights under this callsign
Pilot: Robert K. (45573)
Aircraft: CESSNA 172 SKYHAWK
(C172)
More flights by this aircraft type
Origin: KBFL Meadows
United States
Destination: KMHV Mojave
United States
More flights between these airports :: More routes between these airports
Route:
File this flight plan on PilotEdge
Remarks:
Altitude:
(Current/Filed)
9,500ft
Speed:
(Current/Filed)
110kts
Departed: 14-Nov-23 08:50 PM
Arrived: 14-Nov-23 09:28 PM
Distance/Time
Traveled:
50nm/0:37
Distance/Time
To Go:
Arrived

Flight Plot

Page will automatically refresh every two minutes.


Map Options




Map Legend


Flown Route
Filed Route
Departure Airport
Arrival Airport
Navaid (VOR, NDB)
Fix

Horizontal Profiles

Position Reports

Time Latitude Longitude Heading Altitude Ground
Speed
14-Nov-23 20:33 35.430640 -119.047252 226 497ft 0kts
14-Nov-23 20:34 35.430640 -119.047252 226 497ft 0kts
14-Nov-23 20:35 35.430640 -119.047252 226 497ft 0kts
14-Nov-23 20:36 35.430640 -119.047252 226 497ft 0kts
14-Nov-23 20:37 35.430640 -119.047252 226 497ft 0kts
14-Nov-23 20:38 35.430640 -119.047252 226 497ft 0kts
14-Nov-23 20:39 35.430640 -119.047252 226 497ft 0kts
14-Nov-23 20:40 35.430640 -119.047252 226 497ft 0kts
14-Nov-23 20:41 35.430640 -119.047252 226 497ft 0kts
14-Nov-23 20:42 35.430640 -119.047252 226 497ft 0kts
14-Nov-23 20:43 35.430640 -119.047253 226 497ft 0kts
14-Nov-23 20:44 35.429501 -119.048703 142 490ft 6kts
14-Nov-23 20:45 35.427567 -119.046353 135 485ft 17kts
14-Nov-23 20:46 35.425841 -119.044986 229 479ft 0kts
14-Nov-23 20:47 35.425841 -119.044986 229 479ft 0kts
14-Nov-23 20:48 35.425841 -119.044986 229 479ft 0kts
14-Nov-23 20:49 35.427301 -119.048197 317 480ft 64kts
14-Nov-23 20:50 35.447113 -119.068474 348 1393ft 90kts
14-Nov-23 20:51 35.447950 -119.048283 124 2286ft 85kts
14-Nov-23 20:52 35.434430 -119.026090 125 3288ft 72kts
14-Nov-23 20:53 35.422381 -119.003084 117 4101ft 83kts
14-Nov-23 20:54 35.411020 -118.975990 117 4818ft 88kts
14-Nov-23 20:55 35.400605 -118.949649 117 5718ft 73kts
14-Nov-23 20:56 35.393209 -118.927100 115 6597ft 69kts
14-Nov-23 20:57 35.382559 -118.899764 121 7226ft 88kts
14-Nov-23 20:58 35.370368 -118.871667 122 7847ft 86kts
14-Nov-23 20:59 35.361269 -118.849606 122 8338ft 86kts
14-Nov-23 21:00 35.351000 -118.823987 122 8881ft 85kts
14-Nov-23 21:01 35.339339 -118.797209 125 9481ft 85kts
14-Nov-23 21:02 35.326739 -118.769497 125 9635ft 111kts
14-Nov-23 21:03 35.313413 -118.740710 124 9630ft 92kts
14-Nov-23 21:04 35.301498 -118.713282 124 9690ft 93kts
14-Nov-23 21:05 35.288820 -118.684331 124 9611ft 96kts
14-Nov-23 21:06 35.276323 -118.655806 124 9489ft 97kts
14-Nov-23 21:07 35.264149 -118.628271 124 9504ft 94kts
14-Nov-23 21:08 35.251156 -118.599589 124 9501ft 102kts
14-Nov-23 21:09 35.238611 -118.571253 124 9512ft 93kts
14-Nov-23 21:10 35.227148 -118.544803 124 9534ft 91kts
14-Nov-23 21:11 35.215130 -118.518154 124 9566ft 94kts
14-Nov-23 21:12 35.202991 -118.491158 124 9586ft 94kts
14-Nov-23 21:13 35.191037 -118.464065 124 9513ft 101kts
14-Nov-23 21:14 35.176914 -118.433025 124 8867ft 115kts
14-Nov-23 21:15 35.161341 -118.401064 124 8116ft 115kts
14-Nov-23 21:16 35.145766 -118.369869 124 7467ft 113kts
14-Nov-23 21:17 35.130268 -118.339830 125 6820ft 111kts
14-Nov-23 21:18 35.115748 -118.311305 120 6210ft 98kts
14-Nov-23 21:19 35.105915 -118.283381 111 5862ft 97kts
14-Nov-23 21:20 35.097740 -118.253875 100 5246ft 103kts
14-Nov-23 21:21 35.092348 -118.221953 104 4479ft 111kts
14-Nov-23 21:22 35.084203 -118.191455 111 3800ft 105kts
14-Nov-23 21:23 35.073679 -118.169676 120 3839ft 88kts
14-Nov-23 21:24 35.070367 -118.143229 88 3839ft 86kts
14-Nov-23 21:25 35.066851 -118.120316 171 3409ft 79kts
14-Nov-23 21:26 35.059128 -118.135846 277 2883ft 71kts
14-Nov-23 21:27 35.059232 -118.151859 272 2754ft 27kts
14-Nov-23 21:28 35.058418 -118.157770 184 2762ft 11kts
14-Nov-23 21:29 35.057688 -118.157665 146 2760ft 16kts
14-Nov-23 21:30 35.057245 -118.157759 263 2760ft 0kts
14-Nov-23 21:31 35.057245 -118.157759 263 2760ft 0kts
14-Nov-23 21:32 35.057245 -118.157759 263 2760ft 0kts
14-Nov-23 21:33 35.057245 -118.157759 263 2760ft 0kts
14-Nov-23 21:34 35.057245 -118.157759 263 2760ft 0kts
14-Nov-23 21:35 35.057245 -118.157759 263 2760ft 0kts
14-Nov-23 21:36 35.057245 -118.157759 263 2760ft 0kts
14-Nov-23 21:37 35.057245 -118.157759 263 2760ft 0kts
14-Nov-23 21:38 35.057245 -118.157759 263 2760ft 0kts
14-Nov-23 21:39 35.057245 -118.157759 263 2760ft 0kts
14-Nov-23 21:40 35.057245 -118.157759 263 2760ft 0kts
14-Nov-23 21:41 35.057245 -118.157759 263 2760ft 0kts

Navigation Log

Ident Type
Flight plan parsing failed, navigation log unavailable